sensor_id;sensor_type;location;lat;lon;timestamp;P1;durP1;ratioP1;P2;durP2;ratioP2
14092;SDS011;7123;49.468;10.992;2023-05-29T00:01:04;5.28;;;2.97;;
14092;SDS011;7123;49.468;10.992;2023-05-29T00:03:35;4.23;;;3.13;;
14092;SDS011;7123;49.468;10.992;2023-05-29T00:06:02;3.63;;;2.95;;
14092;SDS011;7123;49.468;10.992;2023-05-29T00:08:29;5.75;;;3.10;;
14092;SDS011;7123;49.468;10.992;2023-05-29T00:10:55;4.70;;;3.17;;
14092;SDS011;7123;49.468;10.992;2023-05-29T00:13:22;3.60;;;2.95;;
14092;SDS011;7123;49.468;10.992;2023-05-29T00:15:49;5.13;;;3.15;;
14092;SDS011;7123;49.468;10.992;2023-05-29T00:18:16;5.60;;;3.10;;
14092;SDS011;7123;49.468;10.992;2023-05-29T00:20:42;3.63;;;3.25;;
14092;SDS011;7123;49.468;10.992;2023-05-29T00:23:09;3.00;;;2.72;;
14092;SDS011;7123;49.468;10.992;2023-05-29T00:25:36;3.25;;;2.75;;
14092;SDS011;7123;49.468;10.992;2023-05-29T00:28:03;4.05;;;3.17;;
14092;SDS011;7123;49.468;10.992;2023-05-29T00:30:30;3.95;;;3.40;;
14092;SDS011;7123;49.468;10.992;2023-05-29T00:32:57;5.55;;;3.50;;
14092;SDS011;7123;49.468;10.992;2023-05-29T00:35:24;5.03;;;3.20;;
14092;SDS011;7123;49.468;10.992;2023-05-29T00:37:51;4.07;;;3.55;;
14092;SDS011;7123;49.468;10.992;2023-05-29T00:40:17;6.32;;;3.47;;
14092;SDS011;7123;49.468;10.992;2023-05-29T00:42:44;5.20;;;3.30;;
14092;SDS011;7123;49.468;10.992;2023-05-29T00:45:11;6.13;;;3.67;;
14092;SDS011;7123;49.468;10.992;2023-05-29T00:47:40;5.70;;;3.77;;
14092;SDS011;7123;49.468;10.992;2023-05-29T00:50:10;4.75;;;3.85;;
14092;SDS011;7123;49.468;10.992;2023-05-29T00:52:40;6.35;;;3.15;;
14092;SDS011;7123;49.468;10.992;2023-05-29T00:55:09;6.53;;;3.80;;
14092;SDS011;7123;49.468;10.992;2023-05-29T00:57:35;5.13;;;3.40;;
14092;SDS011;7123;49.468;10.992;2023-05-29T01:00:04;5.38;;;3.85;;
14092;SDS011;7123;49.468;10.992;2023-05-29T01:02:36;3.80;;;3.50;;
14092;SDS011;7123;49.468;10.992;2023-05-29T01:05:04;4.93;;;3.60;;
14092;SDS011;7123;49.468;10.992;2023-05-29T01:07:32;4.05;;;3.50;;
14092;SDS011;7123;49.468;10.992;2023-05-29T01:09:59;3.83;;;3.50;;
14092;SDS011;7123;49.468;10.992;2023-05-29T01:12:35;5.07;;;3.53;;
14092;SDS011;7123;49.468;10.992;2023-05-29T01:15:28;4.30;;;3.30;;
14092;SDS011;7123;49.468;10.992;2023-05-29T01:18:19;3.73;;;3.43;;
14092;SDS011;7123;49.468;10.992;2023-05-29T01:26:46;6.53;;;3.60;;
14092;SDS011;7123;49.468;10.992;2023-05-29T01:29:19;4.87;;;3.47;;
14092;SDS011;7123;49.468;10.992;2023-05-29T01:31:49;5.05;;;3.67;;
14092;SDS011;7123;49.468;10.992;2023-05-29T01:34:17;8.37;;;3.87;;
14092;SDS011;7123;49.468;10.992;2023-05-29T01:36:44;4.80;;;3.50;;
14092;SDS011;7123;49.468;10.992;2023-05-29T01:39:12;4.65;;;3.45;;
14092;SDS011;7123;49.468;10.992;2023-05-29T01:41:40;5.63;;;3.43;;
14092;SDS011;7123;49.468;10.992;2023-05-29T01:44:09;5.72;;;3.45;;
14092;SDS011;7123;49.468;10.992;2023-05-29T01:46:37;5.23;;;3.20;;
14092;SDS011;7123;49.468;10.992;2023-05-29T01:49:05;3.75;;;3.30;;
14092;SDS011;7123;49.468;10.992;2023-05-29T01:51:31;5.70;;;3.88;;
14092;SDS011;7123;49.468;10.992;2023-05-29T01:53:58;5.90;;;3.83;;
14092;SDS011;7123;49.468;10.992;2023-05-29T01:56:27;3.55;;;3.10;;
14092;SDS011;7123;49.468;10.992;2023-05-29T01:58:54;4.57;;;3.08;;
14092;SDS011;7123;49.468;10.992;2023-05-29T02:01:22;5.20;;;3.20;;
14092;SDS011;7123;49.468;10.992;2023-05-29T02:03:50;5.25;;;3.00;;
14092;SDS011;7123;49.468;10.992;2023-05-29T02:06:20;3.53;;;3.03;;
14092;SDS011;7123;49.468;10.992;2023-05-29T02:08:47;4.47;;;3.22;;
14092;SDS011;7123;49.468;10.992;2023-05-29T02:11:13;3.50;;;3.20;;
14092;SDS011;7123;49.468;10.992;2023-05-29T02:13:41;5.53;;;3.33;;
14092;SDS011;7123;49.468;10.992;2023-05-29T02:16:08;6.80;;;3.13;;
14092;SDS011;7123;49.468;10.992;2023-05-29T02:18:34;3.80;;;3.40;;
14092;SDS011;7123;49.468;10.992;2023-05-29T02:21:01;4.80;;;3.37;;
14092;SDS011;7123;49.468;10.992;2023-05-29T02:23:28;4.85;;;3.30;;
14092;SDS011;7123;49.468;10.992;2023-05-29T02:25:55;5.83;;;3.40;;
14092;SDS011;7123;49.468;10.992;2023-05-29T02:28:22;4.00;;;3.30;;
14092;SDS011;7123;49.468;10.992;2023-05-29T02:30:49;3.40;;;3.10;;
14092;SDS011;7123;49.468;10.992;2023-05-29T02:33:16;5.63;;;3.40;;
14092;SDS011;7123;49.468;10.992;2023-05-29T02:35:43;4.63;;;3.40;;
14092;SDS011;7123;49.468;10.992;2023-05-29T02:38:09;7.00;;;3.40;;
14092;SDS011;7123;49.468;10.992;2023-05-29T02:40:36;3.50;;;2.87;;
14092;SDS011;7123;49.468;10.992;2023-05-29T02:43:03;5.87;;;3.17;;
14092;SDS011;7123;49.468;10.992;2023-05-29T02:45:30;5.37;;;3.40;;
14092;SDS011;7123;49.468;10.992;2023-05-29T02:47:58;3.90;;;3.50;;
14092;SDS011;7123;49.468;10.992;2023-05-29T02:50:25;4.00;;;3.13;;
14092;SDS011;7123;49.468;10.992;2023-05-29T02:52:52;5.00;;;3.60;;
14092;SDS011;7123;49.468;10.992;2023-05-29T02:55:19;4.97;;;3.40;;
14092;SDS011;7123;49.468;10.992;2023-05-29T02:57:45;6.70;;;4.00;;
14092;SDS011;7123;49.468;10.992;2023-05-29T03:00:14;4.23;;;3.63;;
14092;SDS011;7123;49.468;10.992;2023-05-29T03:02:41;5.70;;;3.23;;
14092;SDS011;7123;49.468;10.992;2023-05-29T03:05:08;4.73;;;3.50;;
14092;SDS011;7123;49.468;10.992;2023-05-29T03:07:35;3.87;;;3.37;;
14092;SDS011;7123;49.468;10.992;2023-05-29T03:10:02;4.97;;;3.50;;
14092;SDS011;7123;49.468;10.992;2023-05-29T03:12:30;4.30;;;3.47;;
14092;SDS011;7123;49.468;10.992;2023-05-29T03:14:56;3.90;;;3.50;;
14092;SDS011;7123;49.468;10.992;2023-05-29T03:17:23;4.90;;;3.37;;
14092;SDS011;7123;49.468;10.992;2023-05-29T03:19:50;3.70;;;3.40;;
14092;SDS011;7123;49.468;10.992;2023-05-29T03:22:17;6.30;;;3.40;;
14092;SDS011;7123;49.468;10.992;2023-05-29T03:24:43;5.37;;;3.50;;
14092;SDS011;7123;49.468;10.992;2023-05-29T03:27:10;4.93;;;3.63;;
14092;SDS011;7123;49.468;10.992;2023-05-29T03:29:37;6.77;;;3.30;;
14092;SDS011;7123;49.468;10.992;2023-05-29T03:32:04;7.20;;;3.40;;
14092;SDS011;7123;49.468;10.992;2023-05-29T03:34:31;3.77;;;3.27;;
14092;SDS011;7123;49.468;10.992;2023-05-29T03:36:57;5.17;;;3.50;;
14092;SDS011;7123;49.468;10.992;2023-05-29T03:39:24;4.30;;;3.70;;
14092;SDS011;7123;49.468;10.992;2023-05-29T03:41:51;3.57;;;3.20;;
14092;SDS011;7123;49.468;10.992;2023-05-29T03:44:17;5.43;;;3.60;;
14092;SDS011;7123;49.468;10.992;2023-05-29T03:46:44;4.33;;;3.30;;
14092;SDS011;7123;49.468;10.992;2023-05-29T03:49:11;8.90;;;3.90;;
14092;SDS011;7123;49.468;10.992;2023-05-29T03:51:37;3.53;;;3.23;;
14092;SDS011;7123;49.468;10.992;2023-05-29T03:54:04;4.60;;;3.43;;
14092;SDS011;7123;49.468;10.992;2023-05-29T03:56:31;5.47;;;3.40;;
14092;SDS011;7123;49.468;10.992;2023-05-29T03:58:58;4.40;;;3.50;;
14092;SDS011;7123;49.468;10.992;2023-05-29T04:01:24;5.13;;;3.30;;
14092;SDS011;7123;49.468;10.992;2023-05-29T04:03:51;4.03;;;3.33;;
14092;SDS011;7123;49.468;10.992;2023-05-29T04:06:18;4.07;;;3.40;;
14092;SDS011;7123;49.468;10.992;2023-05-29T04:08:45;3.90;;;3.30;;
14092;SDS011;7123;49.468;10.992;2023-05-29T04:11:12;3.80;;;3.40;;
14092;SDS011;7123;49.468;10.992;2023-05-29T04:13:40;4.83;;;3.30;;
14092;SDS011;7123;49.468;10.992;2023-05-29T04:16:07;5.73;;;3.60;;
14092;SDS011;7123;49.468;10.992;2023-05-29T04:18:33;3.83;;;3.20;;
14092;SDS011;7123;49.468;10.992;2023-05-29T04:21:00;4.07;;;3.23;;
14092;SDS011;7123;49.468;10.992;2023-05-29T04:23:27;4.00;;;3.60;;
14092;SDS011;7123;49.468;10.992;2023-05-29T04:25:54;6.80;;;3.63;;
14092;SDS011;7123;49.468;10.992;2023-05-29T04:28:20;6.70;;;3.90;;
14092;SDS011;7123;49.468;10.992;2023-05-29T04:30:47;7.57;;;3.37;;
14092;SDS011;7123;49.468;10.992;2023-05-29T04:33:14;4.37;;;3.30;;
14092;SDS011;7123;49.468;10.992;2023-05-29T04:35:41;5.30;;;3.70;;
14092;SDS011;7123;49.468;10.992;2023-05-29T04:38:11;4.33;;;3.20;;
14092;SDS011;7123;49.468;10.992;2023-05-29T04:40:37;6.03;;;3.37;;
14092;SDS011;7123;49.468;10.992;2023-05-29T04:43:06;4.90;;;3.13;;
14092;SDS011;7123;49.468;10.992;2023-05-29T04:45:33;4.20;;;3.60;;
14092;SDS011;7123;49.468;10.992;2023-05-29T04:48:03;7.63;;;3.43;;
14092;SDS011;7123;49.468;10.992;2023-05-29T04:50:30;5.33;;;3.40;;
14092;SDS011;7123;49.468;10.992;2023-05-29T04:52:57;3.83;;;3.50;;
14092;SDS011;7123;49.468;10.992;2023-05-29T04:55:24;5.97;;;3.10;;
14092;SDS011;7123;49.468;10.992;2023-05-29T04:57:51;3.60;;;3.30;;
14092;SDS011;7123;49.468;10.992;2023-05-29T05:00:19;4.00;;;3.27;;
14092;SDS011;7123;49.468;10.992;2023-05-29T05:02:46;4.23;;;3.03;;
14092;SDS011;7123;49.468;10.992;2023-05-29T05:05:13;4.57;;;3.73;;
14092;SDS011;7123;49.468;10.992;2023-05-29T05:07:39;4.80;;;3.63;;
14092;SDS011;7123;49.468;10.992;2023-05-29T05:10:07;10.37;;;3.40;;
14092;SDS011;7123;49.468;10.992;2023-05-29T05:12:33;3.60;;;2.87;;
14092;SDS011;7123;49.468;10.992;2023-05-29T05:15:00;4.20;;;3.60;;
14092;SDS011;7123;49.468;10.992;2023-05-29T05:17:27;3.97;;;3.40;;
14092;SDS011;7123;49.468;10.992;2023-05-29T05:19:54;4.67;;;3.30;;
14092;SDS011;7123;49.468;10.992;2023-05-29T05:22:20;5.47;;;3.80;;
14092;SDS011;7123;49.468;10.992;2023-05-29T05:24:47;3.50;;;3.20;;
14092;SDS011;7123;49.468;10.992;2023-05-29T05:27:14;4.93;;;3.30;;
14092;SDS011;7123;49.468;10.992;2023-05-29T05:29:41;3.73;;;3.43;;
14092;SDS011;7123;49.468;10.992;2023-05-29T05:32:07;5.20;;;3.60;;
14092;SDS011;7123;49.468;10.992;2023-05-29T05:34:34;5.40;;;4.23;;
14092;SDS011;7123;49.468;10.992;2023-05-29T05:37:01;6.10;;;3.37;;
14092;SDS011;7123;49.468;10.992;2023-05-29T05:39:28;3.80;;;3.47;;
14092;SDS011;7123;49.468;10.992;2023-05-29T05:41:55;4.73;;;3.30;;
14092;SDS011;7123;49.468;10.992;2023-05-29T05:44:22;3.70;;;3.40;;
14092;SDS011;7123;49.468;10.992;2023-05-29T05:46:49;5.67;;;3.50;;
14092;SDS011;7123;49.468;10.992;2023-05-29T05:49:15;5.83;;;3.33;;
14092;SDS011;7123;49.468;10.992;2023-05-29T05:51:42;3.50;;;3.20;;
14092;SDS011;7123;49.468;10.992;2023-05-29T05:54:09;4.47;;;3.03;;
14092;SDS011;7123;49.468;10.992;2023-05-29T05:56:36;3.30;;;2.97;;
14092;SDS011;7123;49.468;10.992;2023-05-29T05:59:03;4.30;;;3.13;;
14092;SDS011;7123;49.468;10.992;2023-05-29T06:01:29;5.50;;;3.30;;
14092;SDS011;7123;49.468;10.992;2023-05-29T06:03:56;6.43;;;3.43;;
14092;SDS011;7123;49.468;10.992;2023-05-29T06:06:23;6.50;;;3.40;;
14092;SDS011;7123;49.468;10.992;2023-05-29T06:08:50;5.80;;;3.27;;
14092;SDS011;7123;49.468;10.992;2023-05-29T06:11:17;3.90;;;3.10;;
14092;SDS011;7123;49.468;10.992;2023-05-29T06:13:45;4.70;;;2.83;;
14092;SDS011;7123;49.468;10.992;2023-05-29T06:16:11;3.77;;;3.10;;
14092;SDS011;7123;49.468;10.992;2023-05-29T06:18:38;5.63;;;3.03;;
14092;SDS011;7123;49.468;10.992;2023-05-29T06:21:06;3.83;;;2.80;;
14092;SDS011;7123;49.468;10.992;2023-05-29T06:23:33;3.40;;;2.90;;
14092;SDS011;7123;49.468;10.992;2023-05-29T06:26:00;3.30;;;3.00;;
14092;SDS011;7123;49.468;10.992;2023-05-29T06:28:27;4.07;;;3.10;;
14092;SDS011;7123;49.468;10.992;2023-05-29T06:30:53;3.23;;;2.93;;
14092;SDS011;7123;49.468;10.992;2023-05-29T06:33:20;5.10;;;2.87;;
14092;SDS011;7123;49.468;10.992;2023-05-29T06:35:48;4.80;;;2.90;;
14092;SDS011;7123;49.468;10.992;2023-05-29T06:38:15;4.80;;;3.00;;
14092;SDS011;7123;49.468;10.992;2023-05-29T06:40:42;3.37;;;3.07;;
14092;SDS011;7123;49.468;10.992;2023-05-29T06:43:08;3.27;;;2.70;;
14092;SDS011;7123;49.468;10.992;2023-05-29T06:45:35;4.10;;;3.40;;
14092;SDS011;7123;49.468;10.992;2023-05-29T06:48:02;3.30;;;3.00;;
14092;SDS011;7123;49.468;10.992;2023-05-29T06:50:29;3.20;;;2.80;;
14092;SDS011;7123;49.468;10.992;2023-05-29T06:52:56;3.53;;;3.10;;
14092;SDS011;7123;49.468;10.992;2023-05-29T06:55:23;6.47;;;3.23;;
14092;SDS011;7123;49.468;10.992;2023-05-29T06:57:49;3.47;;;2.93;;
14092;SDS011;7123;49.468;10.992;2023-05-29T07:00:16;4.30;;;2.87;;
14092;SDS011;7123;49.468;10.992;2023-05-29T07:02:44;3.47;;;3.00;;
14092;SDS011;7123;49.468;10.992;2023-05-29T07:05:10;7.03;;;3.20;;
14092;SDS011;7123;49.468;10.992;2023-05-29T07:07:37;3.87;;;3.10;;
14092;SDS011;7123;49.468;10.992;2023-05-29T07:10:04;4.00;;;2.90;;
14092;SDS011;7123;49.468;10.992;2023-05-29T07:12:32;5.77;;;3.00;;
14092;SDS011;7123;49.468;10.992;2023-05-29T07:14:59;3.57;;;2.83;;
14092;SDS011;7123;49.468;10.992;2023-05-29T07:17:25;6.07;;;3.37;;
14092;SDS011;7123;49.468;10.992;2023-05-29T07:19:52;4.33;;;3.13;;
14092;SDS011;7123;49.468;10.992;2023-05-29T07:22:20;7.17;;;2.80;;
14092;SDS011;7123;49.468;10.992;2023-05-29T07:24:47;3.50;;;3.20;;
14092;SDS011;7123;49.468;10.992;2023-05-29T07:27:13;3.17;;;2.97;;
14092;SDS011;7123;49.468;10.992;2023-05-29T07:29:40;3.90;;;3.37;;
14092;SDS011;7123;49.468;10.992;2023-05-29T07:32:08;4.03;;;2.70;;
14092;SDS011;7123;49.468;10.992;2023-05-29T07:34:35;5.80;;;3.57;;
14092;SDS011;7123;49.468;10.992;2023-05-29T07:37:03;8.97;;;2.70;;
14092;SDS011;7123;49.468;10.992;2023-05-29T07:39:31;3.43;;;3.00;;
14092;SDS011;7123;49.468;10.992;2023-05-29T07:42:02;3.10;;;2.70;;
14092;SDS011;7123;49.468;10.992;2023-05-29T07:44:29;4.63;;;2.90;;
14092;SDS011;7123;49.468;10.992;2023-05-29T07:46:56;4.37;;;3.10;;
14092;SDS011;7123;49.468;10.992;2023-05-29T07:49:23;3.40;;;2.60;;
14092;SDS011;7123;49.468;10.992;2023-05-29T07:51:50;4.50;;;2.80;;
14092;SDS011;7123;49.468;10.992;2023-05-29T07:54:16;4.47;;;2.90;;
14092;SDS011;7123;49.468;10.992;2023-05-29T07:56:46;4.63;;;2.80;;
14092;SDS011;7123;49.468;10.992;2023-05-29T07:59:13;8.13;;;2.90;;
14092;SDS011;7123;49.468;10.992;2023-05-29T08:01:40;5.13;;;2.80;;
14092;SDS011;7123;49.468;10.992;2023-05-29T08:04:08;6.27;;;2.90;;
14092;SDS011;7123;49.468;10.992;2023-05-29T08:06:35;4.37;;;2.53;;
14092;SDS011;7123;49.468;10.992;2023-05-29T08:09:02;4.17;;;2.70;;
14092;SDS011;7123;49.468;10.992;2023-05-29T08:11:31;5.70;;;2.80;;
14092;SDS011;7123;49.468;10.992;2023-05-29T08:13:57;3.20;;;2.85;;
14092;SDS011;7123;49.468;10.992;2023-05-29T08:16:25;4.27;;;2.80;;
14092;SDS011;7123;49.468;10.992;2023-05-29T08:18:53;2.93;;;2.63;;
14092;SDS011;7123;49.468;10.992;2023-05-29T08:21:20;2.77;;;2.53;;
14092;SDS011;7123;49.468;10.992;2023-05-29T08:23:47;2.87;;;2.40;;
14092;SDS011;7123;49.468;10.992;2023-05-29T08:26:14;3.13;;;2.67;;
14092;SDS011;7123;49.468;10.992;2023-05-29T08:28:41;2.90;;;2.60;;
14092;SDS011;7123;49.468;10.992;2023-05-29T08:31:08;2.90;;;2.60;;
14092;SDS011;7123;49.468;10.992;2023-05-29T08:33:35;4.60;;;2.30;;
14092;SDS011;7123;49.468;10.992;2023-05-29T08:36:03;5.30;;;2.70;;
14092;SDS011;7123;49.468;10.992;2023-05-29T08:38:30;3.90;;;2.57;;
14092;SDS011;7123;49.468;10.992;2023-05-29T08:40:57;3.47;;;2.57;;
14092;SDS011;7123;49.468;10.992;2023-05-29T08:43:24;9.27;;;2.50;;
14092;SDS011;7123;49.468;10.992;2023-05-29T08:45:56;3.83;;;2.60;;
14092;SDS011;7123;49.468;10.992;2023-05-29T08:48:26;3.57;;;2.50;;
14092;SDS011;7123;49.468;10.992;2023-05-29T08:50:55;3.77;;;2.50;;
14092;SDS011;7123;49.468;10.992;2023-05-29T08:53:23;3.17;;;2.60;;
14092;SDS011;7123;49.468;10.992;2023-05-29T08:55:51;3.77;;;2.57;;
14092;SDS011;7123;49.468;10.992;2023-05-29T08:58:19;4.63;;;2.83;;
14092;SDS011;7123;49.468;10.992;2023-05-29T09:00:50;5.50;;;2.80;;
14092;SDS011;7123;49.468;10.992;2023-05-29T09:03:17;4.13;;;2.50;;
14092;SDS011;7123;49.468;10.992;2023-05-29T09:05:47;3.10;;;2.60;;
14092;SDS011;7123;49.468;10.992;2023-05-29T09:08:15;3.43;;;2.50;;
14092;SDS011;7123;49.468;10.992;2023-05-29T09:10:42;2.83;;;2.47;;
14092;SDS011;7123;49.468;10.992;2023-05-29T09:13:11;4.57;;;2.83;;
14092;SDS011;7123;49.468;10.992;2023-05-29T09:15:40;3.40;;;2.60;;
14092;SDS011;7123;49.468;10.992;2023-05-29T09:18:09;4.10;;;2.90;;
14092;SDS011;7123;49.468;10.992;2023-05-29T09:20:36;3.57;;;2.50;;
14092;SDS011;7123;49.468;10.992;2023-05-29T09:23:05;4.80;;;2.90;;
14092;SDS011;7123;49.468;10.992;2023-05-29T09:25:33;4.03;;;2.63;;
14092;SDS011;7123;49.468;10.992;2023-05-29T09:28:06;3.07;;;2.77;;
14092;SDS011;7123;49.468;10.992;2023-05-29T09:30:38;3.67;;;2.70;;
14092;SDS011;7123;49.468;10.992;2023-05-29T09:33:07;3.73;;;2.43;;
14092;SDS011;7123;49.468;10.992;2023-05-29T09:35:45;4.60;;;2.70;;
14092;SDS011;7123;49.468;10.992;2023-05-29T09:38:17;3.23;;;2.63;;
14092;SDS011;7123;49.468;10.992;2023-05-29T09:41:04;3.60;;;2.63;;
14092;SDS011;7123;49.468;10.992;2023-05-29T09:43:31;2.83;;;2.63;;
14092;SDS011;7123;49.468;10.992;2023-05-29T09:45:59;3.80;;;2.37;;
14092;SDS011;7123;49.468;10.992;2023-05-29T09:48:28;5.63;;;2.60;;
14092;SDS011;7123;49.468;10.992;2023-05-29T09:50:55;3.17;;;2.53;;
14092;SDS011;7123;49.468;10.992;2023-05-29T09:53:24;4.13;;;2.90;;
14092;SDS011;7123;49.468;10.992;2023-05-29T09:55:54;5.10;;;3.00;;
14092;SDS011;7123;49.468;10.992;2023-05-29T09:58:22;5.17;;;2.83;;
14092;SDS011;7123;49.468;10.992;2023-05-29T10:00:49;3.70;;;2.80;;
14092;SDS011;7123;49.468;10.992;2023-05-29T10:03:18;5.70;;;2.40;;
14092;SDS011;7123;49.468;10.992;2023-05-29T10:05:51;3.27;;;2.70;;
14092;SDS011;7123;49.468;10.992;2023-05-29T10:08:21;3.97;;;2.83;;
14092;SDS011;7123;49.468;10.992;2023-05-29T10:10:49;4.50;;;3.17;;
14092;SDS011;7123;49.468;10.992;2023-05-29T10:13:22;5.97;;;2.67;;
14092;SDS011;7123;49.468;10.992;2023-05-29T10:15:51;2.80;;;2.60;;
14092;SDS011;7123;49.468;10.992;2023-05-29T10:18:21;5.10;;;2.60;;
14092;SDS011;7123;49.468;10.992;2023-05-29T10:20:54;3.80;;;3.00;;
14092;SDS011;7123;49.468;10.992;2023-05-29T10:23:25;3.50;;;2.53;;
14092;SDS011;7123;49.468;10.992;2023-05-29T10:25:53;3.63;;;2.85;;
14092;SDS011;7123;49.468;10.992;2023-05-29T10:28:25;3.92;;;2.20;;
14092;SDS011;7123;49.468;10.992;2023-05-29T10:31:07;3.07;;;2.47;;
14092;SDS011;7123;49.468;10.992;2023-05-29T10:36:29;2.90;;;2.70;;
14092;SDS011;7123;49.468;10.992;2023-05-29T10:39:01;2.57;;;2.33;;
14092;SDS011;7123;49.468;10.992;2023-05-29T10:41:29;3.27;;;2.60;;
14092;SDS011;7123;49.468;10.992;2023-05-29T10:44:00;3.22;;;2.90;;
14092;SDS011;7123;49.468;10.992;2023-05-29T10:49:17;3.90;;;2.60;;
14092;SDS011;7123;49.468;10.992;2023-05-29T10:51:45;2.93;;;2.53;;
14092;SDS011;7123;49.468;10.992;2023-05-29T10:54:12;3.17;;;2.53;;
14092;SDS011;7123;49.468;10.992;2023-05-29T10:56:51;4.33;;;2.23;;
14092;SDS011;7123;49.468;10.992;2023-05-29T10:59:22;3.83;;;2.78;;
14092;SDS011;7123;49.468;10.992;2023-05-29T11:01:54;3.93;;;2.60;;
14092;SDS011;7123;49.468;10.992;2023-05-29T11:06:49;3.85;;;2.33;;
14092;SDS011;7123;49.468;10.992;2023-05-29T11:15:06;4.37;;;2.77;;
14092;SDS011;7123;49.468;10.992;2023-05-29T11:20:05;3.60;;;2.30;;
14092;SDS011;7123;49.468;10.992;2023-05-29T11:23:00;4.03;;;2.30;;
14092;SDS011;7123;49.468;10.992;2023-05-29T11:25:24;3.88;;;2.47;;
14092;SDS011;7123;49.468;10.992;2023-05-29T11:27:51;4.20;;;2.70;;
14092;SDS011;7123;49.468;10.992;2023-05-29T11:30:18;3.03;;;2.37;;
14092;SDS011;7123;49.468;10.992;2023-05-29T11:32:47;5.15;;;2.40;;
14092;SDS011;7123;49.468;10.992;2023-05-29T11:35:14;2.60;;;2.40;;
14092;SDS011;7123;49.468;10.992;2023-05-29T11:37:42;3.03;;;2.33;;
14092;SDS011;7123;49.468;10.992;2023-05-29T11:40:12;5.45;;;2.53;;
14092;SDS011;7123;49.468;10.992;2023-05-29T11:42:43;5.47;;;2.90;;
14092;SDS011;7123;49.468;10.992;2023-05-29T11:45:15;3.88;;;2.55;;
14092;SDS011;7123;49.468;10.992;2023-05-29T11:47:50;3.83;;;2.93;;
14092;SDS011;7123;49.468;10.992;2023-05-29T11:50:18;2.53;;;2.33;;
14092;SDS011;7123;49.468;10.992;2023-05-29T11:52:47;2.47;;;2.28;;
14092;SDS011;7123;49.468;10.992;2023-05-29T11:55:14;4.35;;;2.33;;
14092;SDS011;7123;49.468;10.992;2023-05-29T11:57:41;4.10;;;2.33;;
14092;SDS011;7123;49.468;10.992;2023-05-29T12:00:12;2.53;;;2.33;;
14092;SDS011;7123;49.468;10.992;2023-05-29T12:02:40;2.60;;;2.40;;
14092;SDS011;7123;49.468;10.992;2023-05-29T12:05:09;2.42;;;2.25;;
14092;SDS011;7123;49.468;10.992;2023-05-29T12:07:36;3.60;;;2.55;;
14092;SDS011;7123;49.468;10.992;2023-05-29T12:10:12;2.50;;;2.30;;
14092;SDS011;7123;49.468;10.992;2023-05-29T12:12:41;3.03;;;2.30;;
14092;SDS011;7123;49.468;10.992;2023-05-29T12:15:08;3.47;;;2.00;;
14092;SDS011;7123;49.468;10.992;2023-05-29T12:17:35;6.30;;;2.40;;
14092;SDS011;7123;49.468;10.992;2023-05-29T12:20:03;3.00;;;2.35;;
14092;SDS011;7123;49.468;10.992;2023-05-29T12:22:36;2.42;;;2.22;;
14092;SDS011;7123;49.468;10.992;2023-05-29T12:25:05;3.30;;;2.38;;
14092;SDS011;7123;49.468;10.992;2023-05-29T12:27:39;3.10;;;2.25;;
14092;SDS011;7123;49.468;10.992;2023-05-29T12:30:13;3.55;;;2.38;;
14092;SDS011;7123;49.468;10.992;2023-05-29T12:32:59;2.60;;;2.30;;
14092;SDS011;7123;49.468;10.992;2023-05-29T12:35:27;3.83;;;2.20;;
14092;SDS011;7123;49.468;10.992;2023-05-29T12:40:26;3.15;;;2.17;;
14092;SDS011;7123;49.468;10.992;2023-05-29T12:42:58;2.75;;;2.53;;
14092;SDS011;7123;49.468;10.992;2023-05-29T12:45:26;3.57;;;2.57;;
14092;SDS011;7123;49.468;10.992;2023-05-29T12:47:57;2.65;;;2.10;;
14092;SDS011;7123;49.468;10.992;2023-05-29T12:50:34;3.08;;;2.33;;
14092;SDS011;7123;49.468;10.992;2023-05-29T12:53:04;5.05;;;2.33;;
14092;SDS011;7123;49.468;10.992;2023-05-29T12:55:39;2.53;;;2.22;;
14092;SDS011;7123;49.468;10.992;2023-05-29T12:58:07;3.50;;;1.92;;
14092;SDS011;7123;49.468;10.992;2023-05-29T13:00:36;2.60;;;2.40;;
14092;SDS011;7123;49.468;10.992;2023-05-29T13:03:04;3.50;;;2.20;;
14092;SDS011;7123;49.468;10.992;2023-05-29T13:05:32;3.03;;;2.30;;
14092;SDS011;7123;49.468;10.992;2023-05-29T13:08:00;2.72;;;2.20;;
14092;SDS011;7123;49.468;10.992;2023-05-29T13:10:27;2.33;;;2.17;;
14092;SDS011;7123;49.468;10.992;2023-05-29T13:12:54;2.58;;;2.38;;
14092;SDS011;7123;49.468;10.992;2023-05-29T13:15:22;2.42;;;2.22;;
14092;SDS011;7123;49.468;10.992;2023-05-29T13:17:49;2.78;;;2.58;;
14092;SDS011;7123;49.468;10.992;2023-05-29T13:20:17;3.13;;;2.40;;
14092;SDS011;7123;49.468;10.992;2023-05-29T13:22:46;2.70;;;2.20;;
14092;SDS011;7123;49.468;10.992;2023-05-29T13:25:14;3.30;;;2.72;;
14092;SDS011;7123;49.468;10.992;2023-05-29T13:27:42;2.90;;;2.70;;
14092;SDS011;7123;49.468;10.992;2023-05-29T13:30:11;4.47;;;2.60;;
14092;SDS011;7123;49.468;10.992;2023-05-29T13:32:39;2.42;;;2.22;;
14092;SDS011;7123;49.468;10.992;2023-05-29T13:35:07;2.95;;;2.15;;
14092;SDS011;7123;49.468;10.992;2023-05-29T13:37:35;2.50;;;2.30;;
14092;SDS011;7123;49.468;10.992;2023-05-29T13:40:02;3.30;;;2.50;;
14092;SDS011;7123;49.468;10.992;2023-05-29T13:42:35;2.25;;;2.10;;
14092;SDS011;7123;49.468;10.992;2023-05-29T13:45:05;3.38;;;2.60;;
14092;SDS011;7123;49.468;10.992;2023-05-29T13:47:33;3.30;;;2.28;;
14092;SDS011;7123;49.468;10.992;2023-05-29T13:50:00;2.40;;;2.20;;
14092;SDS011;7123;49.468;10.992;2023-05-29T13:52:28;2.80;;;2.60;;
14092;SDS011;7123;49.468;10.992;2023-05-29T13:54:55;2.75;;;2.55;;
14092;SDS011;7123;49.468;10.992;2023-05-29T13:57:24;2.60;;;2.42;;
14092;SDS011;7123;49.468;10.992;2023-05-29T13:59:50;2.75;;;2.55;;
14092;SDS011;7123;49.468;10.992;2023-05-29T14:02:17;2.67;;;2.47;;
14092;SDS011;7123;49.468;10.992;2023-05-29T14:04:44;2.70;;;2.50;;
14092;SDS011;7123;49.468;10.992;2023-05-29T14:07:11;2.55;;;2.35;;
14092;SDS011;7123;49.468;10.992;2023-05-29T14:09:38;3.10;;;2.70;;
14092;SDS011;7123;49.468;10.992;2023-05-29T14:12:06;3.25;;;2.80;;
14092;SDS011;7123;49.468;10.992;2023-05-29T14:14:34;4.82;;;2.60;;
14092;SDS011;7123;49.468;10.992;2023-05-29T14:17:02;2.45;;;2.25;;
14092;SDS011;7123;49.468;10.992;2023-05-29T14:19:31;3.88;;;2.63;;
14092;SDS011;7123;49.468;10.992;2023-05-29T14:22:01;4.15;;;2.38;;
14092;SDS011;7123;49.468;10.992;2023-05-29T14:24:27;2.92;;;2.63;;
14092;SDS011;7123;49.468;10.992;2023-05-29T14:26:55;3.25;;;2.72;;
14092;SDS011;7123;49.468;10.992;2023-05-29T14:29:22;2.72;;;2.53;;
14092;SDS011;7123;49.468;10.992;2023-05-29T14:31:48;5.00;;;2.78;;
14092;SDS011;7123;49.468;10.992;2023-05-29T14:34:15;2.97;;;2.72;;
14092;SDS011;7123;49.468;10.992;2023-05-29T14:36:42;3.60;;;2.38;;
14092;SDS011;7123;49.468;10.992;2023-05-29T14:39:11;2.50;;;2.30;;
14092;SDS011;7123;49.468;10.992;2023-05-29T14:41:41;2.63;;;2.42;;
14092;SDS011;7123;49.468;10.992;2023-05-29T14:44:09;2.90;;;2.60;;
14092;SDS011;7123;49.468;10.992;2023-05-29T14:46:38;3.17;;;2.58;;
14092;SDS011;7123;49.468;10.992;2023-05-29T14:49:04;4.20;;;2.50;;
14092;SDS011;7123;49.468;10.992;2023-05-29T14:51:34;2.75;;;2.53;;
14092;SDS011;7123;49.468;10.992;2023-05-29T14:54:03;2.92;;;2.47;;
14092;SDS011;7123;49.468;10.992;2023-05-29T14:56:30;2.65;;;2.40;;
14092;SDS011;7123;49.468;10.992;2023-05-29T14:58:58;4.55;;;2.38;;
14092;SDS011;7123;49.468;10.992;2023-05-29T15:01:25;3.35;;;2.50;;
14092;SDS011;7123;49.468;10.992;2023-05-29T15:03:52;3.25;;;2.53;;
14092;SDS011;7123;49.468;10.992;2023-05-29T15:06:19;7.30;;;2.72;;
14092;SDS011;7123;49.468;10.992;2023-05-29T15:08:46;3.70;;;2.30;;
14092;SDS011;7123;49.468;10.992;2023-05-29T15:11:14;2.67;;;2.58;;
14092;SDS011;7123;49.468;10.992;2023-05-29T15:13:48;5.05;;;2.50;;
14092;SDS011;7123;49.468;10.992;2023-05-29T15:16:16;3.95;;;2.60;;
14092;SDS011;7123;49.468;10.992;2023-05-29T15:18:44;2.63;;;2.42;;